sensor_id;sensor_type;location;lat;lon;timestamp;P1;durP1;ratioP1;P2;durP2;ratioP2
28828;SDS011;15966;51.540;11.870;2023-06-10T00:00:39;10.10;;;5.67;;
28828;SDS011;15966;51.540;11.870;2023-06-10T00:03:06;5.03;;;4.03;;
28828;SDS011;15966;51.540;11.870;2023-06-10T00:05:33;5.90;;;4.38;;
28828;SDS011;15966;51.540;11.870;2023-06-10T00:08:00;6.43;;;4.60;;
28828;SDS011;15966;51.540;11.870;2023-06-10T00:10:32;5.55;;;3.90;;
28828;SDS011;15966;51.540;11.870;2023-06-10T00:13:03;8.65;;;4.18;;
28828;SDS011;15966;51.540;11.870;2023-06-10T00:15:29;4.78;;;3.53;;
28828;SDS011;15966;51.540;11.870;2023-06-10T00:17:56;5.78;;;3.78;;
28828;SDS011;15966;51.540;11.870;2023-06-10T00:20:22;10.00;;;4.47;;
28828;SDS011;15966;51.540;11.870;2023-06-10T00:22:49;7.95;;;4.50;;
28828;SDS011;15966;51.540;11.870;2023-06-10T00:25:16;9.80;;;4.50;;
28828;SDS011;15966;51.540;11.870;2023-06-10T00:27:42;5.80;;;4.15;;
28828;SDS011;15966;51.540;11.870;2023-06-10T00:30:08;10.65;;;4.13;;
28828;SDS011;15966;51.540;11.870;2023-06-10T00:32:35;7.00;;;4.53;;
28828;SDS011;15966;51.540;11.870;2023-06-10T00:35:02;9.82;;;4.68;;
28828;SDS011;15966;51.540;11.870;2023-06-10T00:37:28;7.95;;;3.53;;
28828;SDS011;15966;51.540;11.870;2023-06-10T00:39:55;9.98;;;4.20;;
28828;SDS011;15966;51.540;11.870;2023-06-10T00:42:21;7.40;;;4.32;;
28828;SDS011;15966;51.540;11.870;2023-06-10T00:44:49;9.85;;;5.10;;
28828;SDS011;15966;51.540;11.870;2023-06-10T00:47:15;7.97;;;4.03;;
28828;SDS011;15966;51.540;11.870;2023-06-10T00:49:42;9.05;;;4.40;;
28828;SDS011;15966;51.540;11.870;2023-06-10T00:52:08;9.45;;;5.13;;
28828;SDS011;15966;51.540;11.870;2023-06-10T00:54:35;7.93;;;4.40;;
28828;SDS011;15966;51.540;11.870;2023-06-10T00:57:02;10.88;;;4.28;;
28828;SDS011;15966;51.540;11.870;2023-06-10T00:59:28;6.22;;;4.50;;
28828;SDS011;15966;51.540;11.870;2023-06-10T01:01:54;7.53;;;4.40;;
28828;SDS011;15966;51.540;11.870;2023-06-10T01:04:21;9.30;;;4.63;;
28828;SDS011;15966;51.540;11.870;2023-06-10T01:06:54;8.57;;;4.82;;
28828;SDS011;15966;51.540;11.870;2023-06-10T01:12:33;8.77;;;4.93;;
28828;SDS011;15966;51.540;11.870;2023-06-10T01:15:06;6.90;;;5.15;;
28828;SDS011;15966;51.540;11.870;2023-06-10T01:17:37;9.68;;;5.05;;
28828;SDS011;15966;51.540;11.870;2023-06-10T01:20:19;10.05;;;4.90;;
28828;SDS011;15966;51.540;11.870;2023-06-10T01:22:45;9.90;;;5.32;;
28828;SDS011;15966;51.540;11.870;2023-06-10T01:25:12;10.90;;;4.63;;
28828;SDS011;15966;51.540;11.870;2023-06-10T01:27:39;10.13;;;5.03;;
28828;SDS011;15966;51.540;11.870;2023-06-10T01:30:11;7.93;;;5.43;;
28828;SDS011;15966;51.540;11.870;2023-06-10T01:32:43;11.57;;;6.20;;
28828;SDS011;15966;51.540;11.870;2023-06-10T01:35:10;13.30;;;6.40;;
28828;SDS011;15966;51.540;11.870;2023-06-10T01:37:38;10.70;;;5.38;;
28828;SDS011;15966;51.540;11.870;2023-06-10T01:40:06;4.85;;;4.32;;
28828;SDS011;15966;51.540;11.870;2023-06-10T01:42:33;6.53;;;5.50;;
28828;SDS011;15966;51.540;11.870;2023-06-10T01:44:59;10.25;;;5.80;;
28828;SDS011;15966;51.540;11.870;2023-06-10T01:47:25;12.02;;;5.57;;
28828;SDS011;15966;51.540;11.870;2023-06-10T01:49:51;8.75;;;5.97;;
28828;SDS011;15966;51.540;11.870;2023-06-10T01:52:18;8.98;;;5.63;;
28828;SDS011;15966;51.540;11.870;2023-06-10T01:54:44;10.75;;;5.78;;
28828;SDS011;15966;51.540;11.870;2023-06-10T01:57:10;19.83;;;5.50;;
28828;SDS011;15966;51.540;11.870;2023-06-10T01:59:36;6.47;;;5.15;;
28828;SDS011;15966;51.540;11.870;2023-06-10T02:02:03;11.60;;;6.60;;
28828;SDS011;15966;51.540;11.870;2023-06-10T02:04:30;9.73;;;6.33;;
28828;SDS011;15966;51.540;11.870;2023-06-10T02:06:56;9.52;;;5.40;;
28828;SDS011;15966;51.540;11.870;2023-06-10T02:09:22;9.30;;;5.22;;
28828;SDS011;15966;51.540;11.870;2023-06-10T02:11:48;10.63;;;6.55;;
28828;SDS011;15966;51.540;11.870;2023-06-10T02:14:14;8.70;;;6.50;;
28828;SDS011;15966;51.540;11.870;2023-06-10T02:16:40;9.38;;;5.90;;
28828;SDS011;15966;51.540;11.870;2023-06-10T02:19:11;9.68;;;6.13;;
28828;SDS011;15966;51.540;11.870;2023-06-10T02:21:37;9.40;;;6.38;;
28828;SDS011;15966;51.540;11.870;2023-06-10T02:24:04;10.20;;;6.28;;
28828;SDS011;15966;51.540;11.870;2023-06-10T02:26:30;10.48;;;6.45;;
28828;SDS011;15966;51.540;11.870;2023-06-10T02:28:56;9.50;;;6.80;;
28828;SDS011;15966;51.540;11.870;2023-06-10T02:31:23;16.20;;;6.35;;
28828;SDS011;15966;51.540;11.870;2023-06-10T02:33:50;10.63;;;5.80;;
28828;SDS011;15966;51.540;11.870;2023-06-10T02:36:16;12.60;;;7.15;;
28828;SDS011;15966;51.540;11.870;2023-06-10T02:38:42;13.90;;;7.40;;
28828;SDS011;15966;51.540;11.870;2023-06-10T02:41:08;10.02;;;5.57;;
28828;SDS011;15966;51.540;11.870;2023-06-10T02:43:34;12.63;;;7.15;;
28828;SDS011;15966;51.540;11.870;2023-06-10T02:46:00;11.75;;;6.30;;
28828;SDS011;15966;51.540;11.870;2023-06-10T02:48:26;13.45;;;6.50;;
28828;SDS011;15966;51.540;11.870;2023-06-10T02:50:53;7.32;;;6.65;;
28828;SDS011;15966;51.540;11.870;2023-06-10T02:53:20;9.30;;;6.63;;
28828;SDS011;15966;51.540;11.870;2023-06-10T02:55:46;11.85;;;7.35;;
28828;SDS011;15966;51.540;11.870;2023-06-10T02:58:13;16.45;;;7.10;;
28828;SDS011;15966;51.540;11.870;2023-06-10T03:00:39;10.10;;;7.07;;
28828;SDS011;15966;51.540;11.870;2023-06-10T03:03:05;7.10;;;6.33;;
28828;SDS011;15966;51.540;11.870;2023-06-10T03:05:32;10.38;;;6.55;;
28828;SDS011;15966;51.540;11.870;2023-06-10T03:07:58;16.25;;;7.20;;
28828;SDS011;15966;51.540;11.870;2023-06-10T03:10:24;9.77;;;6.57;;
28828;SDS011;15966;51.540;11.870;2023-06-10T03:12:50;9.82;;;6.43;;
28828;SDS011;15966;51.540;11.870;2023-06-10T03:15:16;10.73;;;7.13;;
28828;SDS011;15966;51.540;11.870;2023-06-10T03:17:42;9.68;;;6.93;;
28828;SDS011;15966;51.540;11.870;2023-06-10T03:20:09;11.82;;;7.00;;
28828;SDS011;15966;51.540;11.870;2023-06-10T03:22:35;8.15;;;6.55;;
28828;SDS011;15966;51.540;11.870;2023-06-10T03:25:03;11.88;;;6.55;;
28828;SDS011;15966;51.540;11.870;2023-06-10T03:27:30;7.90;;;6.70;;
28828;SDS011;15966;51.540;11.870;2023-06-10T03:29:57;14.57;;;8.57;;
28828;SDS011;15966;51.540;11.870;2023-06-10T03:32:23;9.93;;;6.47;;
28828;SDS011;15966;51.540;11.870;2023-06-10T03:34:49;12.43;;;5.80;;
28828;SDS011;15966;51.540;11.870;2023-06-10T03:37:16;10.02;;;6.43;;
28828;SDS011;15966;51.540;11.870;2023-06-10T03:39:42;10.18;;;7.75;;
28828;SDS011;15966;51.540;11.870;2023-06-10T03:42:08;12.93;;;8.05;;
28828;SDS011;15966;51.540;11.870;2023-06-10T03:44:34;11.65;;;6.75;;
28828;SDS011;15966;51.540;11.870;2023-06-10T03:47:01;11.52;;;6.47;;
28828;SDS011;15966;51.540;11.870;2023-06-10T03:49:27;6.40;;;5.82;;
28828;SDS011;15966;51.540;11.870;2023-06-10T03:51:54;13.52;;;7.80;;
28828;SDS011;15966;51.540;11.870;2023-06-10T03:54:20;9.57;;;7.15;;
28828;SDS011;15966;51.540;11.870;2023-06-10T03:56:46;10.00;;;7.15;;
28828;SDS011;15966;51.540;11.870;2023-06-10T03:59:15;9.45;;;6.25;;
28828;SDS011;15966;51.540;11.870;2023-06-10T04:01:42;10.48;;;7.13;;
28828;SDS011;15966;51.540;11.870;2023-06-10T04:04:08;12.07;;;6.82;;
28828;SDS011;15966;51.540;11.870;2023-06-10T04:06:35;13.25;;;7.63;;
28828;SDS011;15966;51.540;11.870;2023-06-10T04:09:02;11.85;;;6.68;;
28828;SDS011;15966;51.540;11.870;2023-06-10T04:11:28;12.80;;;7.47;;
28828;SDS011;15966;51.540;11.870;2023-06-10T04:13:54;13.77;;;8.55;;
28828;SDS011;15966;51.540;11.870;2023-06-10T04:16:20;10.75;;;7.13;;
28828;SDS011;15966;51.540;11.870;2023-06-10T04:18:46;10.98;;;6.80;;
28828;SDS011;15966;51.540;11.870;2023-06-10T04:21:12;14.57;;;7.28;;
28828;SDS011;15966;51.540;11.870;2023-06-10T04:23:38;13.60;;;6.90;;
28828;SDS011;15966;51.540;11.870;2023-06-10T04:26:05;13.00;;;7.38;;
28828;SDS011;15966;51.540;11.870;2023-06-10T04:28:31;11.52;;;6.88;;
28828;SDS011;15966;51.540;11.870;2023-06-10T04:30:57;11.88;;;7.13;;
28828;SDS011;15966;51.540;11.870;2023-06-10T04:33:23;12.48;;;7.72;;
28828;SDS011;15966;51.540;11.870;2023-06-10T04:35:49;16.20;;;7.57;;
28828;SDS011;15966;51.540;11.870;2023-06-10T04:38:16;20.08;;;8.38;;
28828;SDS011;15966;51.540;11.870;2023-06-10T04:40:42;9.60;;;7.82;;
28828;SDS011;15966;51.540;11.870;2023-06-10T04:43:08;13.55;;;7.88;;
28828;SDS011;15966;51.540;11.870;2023-06-10T04:45:34;12.30;;;8.52;;
28828;SDS011;15966;51.540;11.870;2023-06-10T04:48:00;8.93;;;7.50;;
28828;SDS011;15966;51.540;11.870;2023-06-10T04:50:26;8.38;;;6.95;;
28828;SDS011;15966;51.540;11.870;2023-06-10T04:52:52;13.80;;;8.07;;
28828;SDS011;15966;51.540;11.870;2023-06-10T04:55:18;11.18;;;7.80;;
28828;SDS011;15966;51.540;11.870;2023-06-10T04:57:44;15.48;;;8.40;;
28828;SDS011;15966;51.540;11.870;2023-06-10T05:00:10;11.80;;;7.60;;
28828;SDS011;15966;51.540;11.870;2023-06-10T05:02:37;13.05;;;8.38;;
28828;SDS011;15966;51.540;11.870;2023-06-10T05:05:03;10.73;;;7.85;;
28828;SDS011;15966;51.540;11.870;2023-06-10T05:07:29;14.27;;;7.22;;
28828;SDS011;15966;51.540;11.870;2023-06-10T05:09:55;14.50;;;8.13;;
28828;SDS011;15966;51.540;11.870;2023-06-10T05:12:21;13.40;;;8.52;;
28828;SDS011;15966;51.540;11.870;2023-06-10T05:14:47;9.68;;;7.65;;
28828;SDS011;15966;51.540;11.870;2023-06-10T05:17:13;11.25;;;8.73;;
28828;SDS011;15966;51.540;11.870;2023-06-10T05:19:39;9.48;;;8.43;;
28828;SDS011;15966;51.540;11.870;2023-06-10T05:22:06;13.63;;;8.73;;
28828;SDS011;15966;51.540;11.870;2023-06-10T05:24:32;15.25;;;8.77;;
28828;SDS011;15966;51.540;11.870;2023-06-10T05:26:58;13.27;;;8.18;;
28828;SDS011;15966;51.540;11.870;2023-06-10T05:29:24;13.13;;;8.68;;
28828;SDS011;15966;51.540;11.870;2023-06-10T05:31:50;12.07;;;8.70;;
28828;SDS011;15966;51.540;11.870;2023-06-10T05:34:17;10.93;;;8.18;;
28828;SDS011;15966;51.540;11.870;2023-06-10T05:36:43;14.13;;;7.65;;
28828;SDS011;15966;51.540;11.870;2023-06-10T05:39:09;10.60;;;7.43;;
28828;SDS011;15966;51.540;11.870;2023-06-10T05:41:35;14.90;;;7.80;;
28828;SDS011;15966;51.540;11.870;2023-06-10T05:44:01;13.45;;;8.73;;
28828;SDS011;15966;51.540;11.870;2023-06-10T05:46:28;20.92;;;9.50;;
28828;SDS011;15966;51.540;11.870;2023-06-10T05:48:54;16.03;;;8.97;;
28828;SDS011;15966;51.540;11.870;2023-06-10T05:51:20;16.92;;;9.00;;
28828;SDS011;15966;51.540;11.870;2023-06-10T05:53:46;10.63;;;9.38;;
28828;SDS011;15966;51.540;11.870;2023-06-10T05:56:13;11.98;;;8.43;;
28828;SDS011;15966;51.540;11.870;2023-06-10T05:58:39;12.90;;;9.35;;
28828;SDS011;15966;51.540;11.870;2023-06-10T06:01:05;9.93;;;7.82;;
28828;SDS011;15966;51.540;11.870;2023-06-10T06:03:31;17.30;;;9.30;;
28828;SDS011;15966;51.540;11.870;2023-06-10T06:05:57;17.67;;;9.15;;
28828;SDS011;15966;51.540;11.870;2023-06-10T06:08:24;12.75;;;9.93;;
28828;SDS011;15966;51.540;11.870;2023-06-10T06:10:50;11.63;;;8.88;;
28828;SDS011;15966;51.540;11.870;2023-06-10T06:13:16;11.18;;;8.38;;
28828;SDS011;15966;51.540;11.870;2023-06-10T06:15:42;14.43;;;9.60;;
28828;SDS011;15966;51.540;11.870;2023-06-10T06:18:08;16.48;;;10.45;;
28828;SDS011;15966;51.540;11.870;2023-06-10T06:20:34;16.00;;;9.65;;
28828;SDS011;15966;51.540;11.870;2023-06-10T06:23:01;12.82;;;9.27;;
28828;SDS011;15966;51.540;11.870;2023-06-10T06:25:27;12.65;;;10.27;;
28828;SDS011;15966;51.540;11.870;2023-06-10T06:27:53;16.67;;;9.93;;
28828;SDS011;15966;51.540;11.870;2023-06-10T06:30:19;16.38;;;9.55;;
28828;SDS011;15966;51.540;11.870;2023-06-10T06:32:45;16.80;;;10.75;;
28828;SDS011;15966;51.540;11.870;2023-06-10T06:35:11;11.50;;;10.10;;
28828;SDS011;15966;51.540;11.870;2023-06-10T06:37:37;13.38;;;9.55;;
28828;SDS011;15966;51.540;11.870;2023-06-10T06:40:03;20.17;;;9.65;;
28828;SDS011;15966;51.540;11.870;2023-06-10T06:42:30;14.57;;;9.45;;
28828;SDS011;15966;51.540;11.870;2023-06-10T06:44:56;15.55;;;8.20;;
28828;SDS011;15966;51.540;11.870;2023-06-10T06:47:22;16.95;;;9.60;;
28828;SDS011;15966;51.540;11.870;2023-06-10T06:49:48;13.75;;;9.60;;
28828;SDS011;15966;51.540;11.870;2023-06-10T06:52:14;13.35;;;8.65;;
28828;SDS011;15966;51.540;11.870;2023-06-10T06:54:41;13.15;;;7.93;;
28828;SDS011;15966;51.540;11.870;2023-06-10T06:57:07;14.48;;;9.55;;
28828;SDS011;15966;51.540;11.870;2023-06-10T06:59:33;14.48;;;10.27;;
28828;SDS011;15966;51.540;11.870;2023-06-10T07:01:59;20.02;;;8.55;;
28828;SDS011;15966;51.540;11.870;2023-06-10T07:04:25;12.15;;;8.15;;
28828;SDS011;15966;51.540;11.870;2023-06-10T07:06:51;16.17;;;8.90;;
28828;SDS011;15966;51.540;11.870;2023-06-10T07:09:17;12.20;;;7.88;;
28828;SDS011;15966;51.540;11.870;2023-06-10T07:11:43;12.75;;;7.80;;
28828;SDS011;15966;51.540;11.870;2023-06-10T07:14:09;9.32;;;8.38;;
28828;SDS011;15966;51.540;11.870;2023-06-10T07:16:36;9.88;;;7.45;;
28828;SDS011;15966;51.540;11.870;2023-06-10T07:19:02;10.82;;;8.07;;
28828;SDS011;15966;51.540;11.870;2023-06-10T07:21:29;17.95;;;9.77;;
28828;SDS011;15966;51.540;11.870;2023-06-10T07:23:55;14.90;;;9.10;;
28828;SDS011;15966;51.540;11.870;2023-06-10T07:26:22;10.52;;;7.68;;
28828;SDS011;15966;51.540;11.870;2023-06-10T07:28:48;13.07;;;9.17;;
28828;SDS011;15966;51.540;11.870;2023-06-10T07:31:14;11.27;;;7.45;;
28828;SDS011;15966;51.540;11.870;2023-06-10T07:33:40;11.88;;;8.55;;
28828;SDS011;15966;51.540;11.870;2023-06-10T07:36:08;14.65;;;7.53;;
28828;SDS011;15966;51.540;11.870;2023-06-10T07:38:34;11.07;;;8.38;;
28828;SDS011;15966;51.540;11.870;2023-06-10T07:41:01;10.50;;;7.30;;
28828;SDS011;15966;51.540;11.870;2023-06-10T07:43:27;9.10;;;7.97;;
28828;SDS011;15966;51.540;11.870;2023-06-10T07:45:53;10.60;;;7.82;;
28828;SDS011;15966;51.540;11.870;2023-06-10T07:48:19;11.90;;;7.10;;
28828;SDS011;15966;51.540;11.870;2023-06-10T07:50:45;14.30;;;7.32;;
28828;SDS011;15966;51.540;11.870;2023-06-10T07:53:11;14.45;;;8.40;;
28828;SDS011;15966;51.540;11.870;2023-06-10T07:55:37;12.32;;;8.18;;
28828;SDS011;15966;51.540;11.870;2023-06-10T07:58:03;14.25;;;9.05;;
28828;SDS011;15966;51.540;11.870;2023-06-10T08:00:29;15.20;;;8.40;;
28828;SDS011;15966;51.540;11.870;2023-06-10T08:02:55;8.95;;;7.93;;
28828;SDS011;15966;51.540;11.870;2023-06-10T08:05:21;14.13;;;8.00;;
28828;SDS011;15966;51.540;11.870;2023-06-10T08:07:47;18.52;;;8.77;;
28828;SDS011;15966;51.540;11.870;2023-06-10T08:10:14;12.10;;;7.95;;
28828;SDS011;15966;51.540;11.870;2023-06-10T08:12:40;10.00;;;7.93;;
28828;SDS011;15966;51.540;11.870;2023-06-10T08:15:06;13.95;;;9.10;;
28828;SDS011;15966;51.540;11.870;2023-06-10T08:17:32;10.07;;;8.20;;
28828;SDS011;15966;51.540;11.870;2023-06-10T08:19:58;11.27;;;8.23;;
28828;SDS011;15966;51.540;11.870;2023-06-10T08:22:25;16.10;;;8.50;;
28828;SDS011;15966;51.540;11.870;2023-06-10T08:24:51;9.15;;;6.75;;
28828;SDS011;15966;51.540;11.870;2023-06-10T08:27:17;12.68;;;8.38;;
28828;SDS011;15966;51.540;11.870;2023-06-10T08:29:43;12.82;;;8.15;;
28828;SDS011;15966;51.540;11.870;2023-06-10T08:32:10;10.57;;;7.55;;
28828;SDS011;15966;51.540;11.870;2023-06-10T08:34:36;10.90;;;8.23;;
28828;SDS011;15966;51.540;11.870;2023-06-10T08:37:02;10.80;;;8.10;;
28828;SDS011;15966;51.540;11.870;2023-06-10T08:39:29;8.43;;;7.53;;
28828;SDS011;15966;51.540;11.870;2023-06-10T08:42:00;10.00;;;6.97;;
28828;SDS011;15966;51.540;11.870;2023-06-10T08:44:31;12.05;;;7.55;;
28828;SDS011;15966;51.540;11.870;2023-06-10T08:46:58;11.70;;;8.45;;
28828;SDS011;15966;51.540;11.870;2023-06-10T08:49:26;9.73;;;8.43;;
28828;SDS011;15966;51.540;11.870;2023-06-10T08:51:55;13.48;;;8.43;;
28828;SDS011;15966;51.540;11.870;2023-06-10T08:54:25;9.40;;;8.18;;
28828;SDS011;15966;51.540;11.870;2023-06-10T08:56:54;9.25;;;8.20;;
28828;SDS011;15966;51.540;11.870;2023-06-10T08:59:21;12.52;;;8.32;;
28828;SDS011;15966;51.540;11.870;2023-06-10T09:01:47;12.45;;;7.95;;
28828;SDS011;15966;51.540;11.870;2023-06-10T09:04:13;9.95;;;7.30;;
28828;SDS011;15966;51.540;11.870;2023-06-10T09:06:41;12.02;;;8.40;;
28828;SDS011;15966;51.540;11.870;2023-06-10T09:09:07;11.13;;;8.05;;
28828;SDS011;15966;51.540;11.870;2023-06-10T09:11:33;8.65;;;7.85;;
28828;SDS011;15966;51.540;11.870;2023-06-10T09:13:59;8.38;;;6.90;;
28828;SDS011;15966;51.540;11.870;2023-06-10T09:16:25;9.82;;;7.43;;
28828;SDS011;15966;51.540;11.870;2023-06-10T09:18:52;10.68;;;7.93;;
28828;SDS011;15966;51.540;11.870;2023-06-10T09:21:23;9.05;;;6.88;;
28828;SDS011;15966;51.540;11.870;2023-06-10T09:23:50;9.25;;;7.45;;
28828;SDS011;15966;51.540;11.870;2023-06-10T09:26:16;13.65;;;7.95;;
28828;SDS011;15966;51.540;11.870;2023-06-10T09:28:48;13.20;;;7.70;;
28828;SDS011;15966;51.540;11.870;2023-06-10T09:31:15;9.32;;;8.43;;
28828;SDS011;15966;51.540;11.870;2023-06-10T09:33:46;12.20;;;9.32;;
28828;SDS011;15966;51.540;11.870;2023-06-10T09:36:21;8.82;;;7.25;;
28828;SDS011;15966;51.540;11.870;2023-06-10T09:38:49;8.15;;;7.35;;
28828;SDS011;15966;51.540;11.870;2023-06-10T09:41:18;8.02;;;7.18;;
28828;SDS011;15966;51.540;11.870;2023-06-10T09:43:45;7.25;;;6.60;;
28828;SDS011;15966;51.540;11.870;2023-06-10T09:48:45;8.85;;;7.95;;
28828;SDS011;15966;51.540;11.870;2023-06-10T09:51:13;13.18;;;7.32;;
28828;SDS011;15966;51.540;11.870;2023-06-10T09:53:47;7.45;;;6.65;;
28828;SDS011;15966;51.540;11.870;2023-06-10T09:56:16;10.23;;;6.93;;
28828;SDS011;15966;51.540;11.870;2023-06-10T09:58:42;10.63;;;7.03;;
28828;SDS011;15966;51.540;11.870;2023-06-10T10:01:12;8.80;;;6.30;;
28828;SDS011;15966;51.540;11.870;2023-06-10T10:03:43;9.18;;;7.82;;
28828;SDS011;15966;51.540;11.870;2023-06-10T10:06:12;7.15;;;6.55;;
28828;SDS011;15966;51.540;11.870;2023-06-10T10:08:42;8.38;;;7.20;;
28828;SDS011;15966;51.540;11.870;2023-06-10T10:11:09;7.30;;;5.32;;
28828;SDS011;15966;51.540;11.870;2023-06-10T10:13:35;9.13;;;6.63;;
28828;SDS011;15966;51.540;11.870;2023-06-10T10:16:09;9.50;;;7.22;;
28828;SDS011;15966;51.540;11.870;2023-06-10T10:18:38;7.35;;;6.28;;
28828;SDS011;15966;51.540;11.870;2023-06-10T10:21:07;8.55;;;6.53;;
28828;SDS011;15966;51.540;11.870;2023-06-10T10:26:25;10.25;;;6.28;;
28828;SDS011;15966;51.540;11.870;2023-06-10T10:29:01;10.70;;;6.22;;
28828;SDS011;15966;51.540;11.870;2023-06-10T10:31:35;8.63;;;6.57;;
28828;SDS011;15966;51.540;11.870;2023-06-10T10:34:04;6.60;;;6.00;;
28828;SDS011;15966;51.540;11.870;2023-06-10T10:36:32;8.27;;;5.97;;
28828;SDS011;15966;51.540;11.870;2023-06-10T10:38:58;8.77;;;6.05;;
28828;SDS011;15966;51.540;11.870;2023-06-10T10:41:27;6.35;;;5.75;;
28828;SDS011;15966;51.540;11.870;2023-06-10T10:43:54;6.25;;;5.60;;
28828;SDS011;15966;51.540;11.870;2023-06-10T10:46:20;6.72;;;6.00;;
28828;SDS011;15966;51.540;11.870;2023-06-10T10:48:47;7.72;;;5.72;;
28828;SDS011;15966;51.540;11.870;2023-06-10T10:51:18;6.68;;;5.68;;
28828;SDS011;15966;51.540;11.870;2023-06-10T10:53:44;6.33;;;5.73;;
28828;SDS011;15966;51.540;11.870;2023-06-10T10:57:09;7.03;;;6.32;;
28828;SDS011;15966;51.540;11.870;2023-06-10T11:02:18;8.63;;;6.60;;
28828;SDS011;15966;51.540;11.870;2023-06-10T11:04:46;8.07;;;6.15;;
28828;SDS011;15966;51.540;11.870;2023-06-10T11:07:12;6.93;;;5.28;;
28828;SDS011;15966;51.540;11.870;2023-06-10T11:09:57;6.05;;;5.47;;
28828;SDS011;15966;51.540;11.870;2023-06-10T11:12:40;8.15;;;6.05;;
28828;SDS011;15966;51.540;11.870;2023-06-10T11:15:10;8.43;;;5.85;;
28828;SDS011;15966;51.540;11.870;2023-06-10T11:17:36;6.63;;;5.65;;
28828;SDS011;15966;51.540;11.870;2023-06-10T11:20:03;8.77;;;5.53;;
28828;SDS011;15966;51.540;11.870;2023-06-10T11:22:30;7.30;;;6.60;;
28828;SDS011;15966;51.540;11.870;2023-06-10T11:24:56;8.10;;;5.72;;
28828;SDS011;15966;51.540;11.870;2023-06-10T11:27:24;8.65;;;6.03;;
28828;SDS011;15966;51.540;11.870;2023-06-10T11:32:28;10.65;;;6.35;;
28828;SDS011;15966;51.540;11.870;2023-06-10T11:34:56;6.30;;;5.75;;
28828;SDS011;15966;51.540;11.870;2023-06-10T11:37:23;8.18;;;6.10;;
28828;SDS011;15966;51.540;11.870;2023-06-10T11:39:53;6.17;;;5.47;;
28828;SDS011;15966;51.540;11.870;2023-06-10T11:42:19;8.18;;;6.32;;
28828;SDS011;15966;51.540;11.870;2023-06-10T11:44:50;6.75;;;5.63;;
28828;SDS011;15966;51.540;11.870;2023-06-10T11:47:17;7.07;;;6.35;;
28828;SDS011;15966;51.540;11.870;2023-06-10T11:49:43;5.72;;;5.07;;
28828;SDS011;15966;51.540;11.870;2023-06-10T11:52:10;6.63;;;5.85;;
28828;SDS011;15966;51.540;11.870;2023-06-10T11:54:36;6.32;;;5.38;;
28828;SDS011;15966;51.540;11.870;2023-06-10T11:57:03;7.70;;;6.20;;
28828;SDS011;15966;51.540;11.870;2023-06-10T11:59:29;7.22;;;5.45;;
28828;SDS011;15966;51.540;11.870;2023-06-10T12:01:56;6.85;;;6.13;;
28828;SDS011;15966;51.540;11.870;2023-06-10T12:04:22;8.05;;;6.07;;
28828;SDS011;15966;51.540;11.870;2023-06-10T12:06:52;10.87;;;7.13;;
28828;SDS011;15966;51.540;11.870;2023-06-10T12:09:25;10.68;;;6.35;;
28828;SDS011;15966;51.540;11.870;2023-06-10T12:11:59;9.50;;;5.32;;
28828;SDS011;15966;51.540;11.870;2023-06-10T12:17:18;8.75;;;6.25;;
28828;SDS011;15966;51.540;11.870;2023-06-10T12:19:48;7.22;;;6.50;;
28828;SDS011;15966;51.540;11.870;2023-06-10T12:24:45;12.35;;;6.28;;
28828;SDS011;15966;51.540;11.870;2023-06-10T12:27:28;7.65;;;6.53;;
28828;SDS011;15966;51.540;11.870;2023-06-10T12:29:54;6.10;;;5.60;;
28828;SDS011;15966;51.540;11.870;2023-06-10T12:32:34;8.88;;;6.75;;
28828;SDS011;15966;51.540;11.870;2023-06-10T12:35:08;8.73;;;6.95;;
28828;SDS011;15966;51.540;11.870;2023-06-10T12:37:36;10.48;;;5.85;;
28828;SDS011;15966;51.540;11.870;2023-06-10T12:40:03;7.93;;;7.07;;
28828;SDS011;15966;51.540;11.870;2023-06-10T12:42:35;8.98;;;6.28;;
28828;SDS011;15966;51.540;11.870;2023-06-10T12:45:02;5.45;;;4.95;;
28828;SDS011;15966;51.540;11.870;2023-06-10T12:47:32;6.80;;;5.60;;
28828;SDS011;15966;51.540;11.870;2023-06-10T12:50:04;7.05;;;6.35;;
28828;SDS011;15966;51.540;11.870;2023-06-10T12:52:30;5.85;;;5.35;;
28828;SDS011;15966;51.540;11.870;2023-06-10T12:54:57;7.50;;;6.80;;
28828;SDS011;15966;51.540;11.870;2023-06-10T12:57:23;7.60;;;6.97;;
28828;SDS011;15966;51.540;11.870;2023-06-10T13:02:22;8.25;;;5.70;;
28828;SDS011;15966;51.540;11.870;2023-06-10T13:07:15;6.47;;;5.65;;
28828;SDS011;15966;51.540;11.870;2023-06-10T13:09:42;6.57;;;5.68;;
28828;SDS011;15966;51.540;11.870;2023-06-10T13:12:08;7.18;;;5.05;;
28828;SDS011;15966;51.540;11.870;2023-06-10T13:14:35;6.93;;;6.28;;
28828;SDS011;15966;51.540;11.870;2023-06-10T13:17:02;6.13;;;5.50;;
28828;SDS011;15966;51.540;11.870;2023-06-10T13:19:30;7.70;;;5.30;;
28828;SDS011;15966;51.540;11.870;2023-06-10T13:21:57;5.85;;;4.90;;
28828;SDS011;15966;51.540;11.870;2023-06-10T13:24:23;7.00;;;5.73;;
28828;SDS011;15966;51.540;11.870;2023-06-10T13:26:49;6.73;;;5.73;;
28828;SDS011;15966;51.540;11.870;2023-06-10T13:29:15;5.93;;;4.80;;
28828;SDS011;15966;51.540;11.870;2023-06-10T13:31:41;10.60;;;5.23;;
28828;SDS011;15966;51.540;11.870;2023-06-10T13:34:07;5.70;;;5.20;;
28828;SDS011;15966;51.540;11.870;2023-06-10T13:36:34;6.00;;;5.40;;
28828;SDS011;15966;51.540;11.870;2023-06-10T13:39:00;8.35;;;5.45;;
28828;SDS011;15966;51.540;11.870;2023-06-10T13:41:26;11.33;;;7.27;;
28828;SDS011;15966;51.540;11.870;2023-06-10T13:43:54;7.50;;;6.40;;
28828;SDS011;15966;51.540;11.870;2023-06-10T13:46:20;6.60;;;5.95;;
28828;SDS011;15966;51.540;11.870;2023-06-10T13:48:46;7.72;;;6.80;;
28828;SDS011;15966;51.540;11.870;2023-06-10T13:51:12;7.22;;;6.47;;
28828;SDS011;15966;51.540;11.870;2023-06-10T13:53:39;8.47;;;5.13;;
28828;SDS011;15966;51.540;11.870;2023-06-10T13:56:05;5.77;;;4.57;;
28828;SDS011;15966;51.540;11.870;2023-06-10T13:58:32;6.80;;;6.05;;
28828;SDS011;15966;51.540;11.870;2023-06-10T14:01:03;7.82;;;6.70;;
28828;SDS011;15966;51.540;11.870;2023-06-10T14:03:30;7.82;;;5.78;;
28828;SDS011;15966;51.540;11.870;2023-06-10T14:05:56;6.22;;;4.55;;
28828;SDS011;15966;51.540;11.870;2023-06-10T14:08:22;9.02;;;5.10;;
28828;SDS011;15966;51.540;11.870;2023-06-10T14:10:48;5.40;;;4.63;;
28828;SDS011;15966;51.540;11.870;2023-06-10T14:13:16;5.90;;;5.38;;
28828;SDS011;15966;51.540;11.870;2023-06-10T14:15:42;9.90;;;4.90;;
28828;SDS011;15966;51.540;11.870;2023-06-10T14:18:08;10.38;;;5.85;;
28828;SDS011;15966;51.540;11.870;2023-06-10T14:20:34;5.05;;;4.55;;
28828;SDS011;15966;51.540;11.870;2023-06-10T14:23:01;5.17;;;4.77;;
28828;SDS011;15966;51.540;11.870;2023-06-10T14:25:27;4.53;;;3.95;;
28828;SDS011;15966;51.540;11.870;2023-06-10T14:27:53;4.70;;;4.25;;
28828;SDS011;15966;51.540;11.870;2023-06-10T14:30:19;5.05;;;3.70;;
28828;SDS011;15966;51.540;11.870;2023-06-10T14:32:45;5.68;;;4.43;;
28828;SDS011;15966;51.540;11.870;2023-06-10T14:35:11;6.40;;;4.97;;
28828;SDS011;15966;51.540;11.870;2023-06-10T14:37:38;6.63;;;5.50;;
28828;SDS011;15966;51.540;11.870;2023-06-10T14:40:04;7.30;;;5.43;;
28828;SDS011;15966;51.540;11.870;2023-06-10T14:42:31;7.47;;;6.40;;
28828;SDS011;15966;51.540;11.870;2023-06-10T14:44:57;7.90;;;7.18;;
28828;SDS011;15966;51.540;11.870;2023-06-10T14:47:23;6.90;;;6.28;;
28828;SDS011;15966;51.540;11.870;2023-06-10T14:49:50;9.48;;;7.78;;
28828;SDS011;15966;51.540;11.870;2023-06-10T14:52:16;7.03;;;6.40;;